sensor_id;sensor_type;location;lat;lon;timestamp;P1;durP1;ratioP1;P2;durP2;ratioP2
38037;SDS011;23843;51.320;12.340;2023-11-19T00:01:39;1.97;;;1.50;;
38037;SDS011;23843;51.320;12.340;2023-11-19T00:04:04;1.40;;;1.30;;
38037;SDS011;23843;51.320;12.340;2023-11-19T00:06:31;1.60;;;1.20;;
38037;SDS011;23843;51.320;12.340;2023-11-19T00:08:56;1.70;;;1.10;;
38037;SDS011;23843;51.320;12.340;2023-11-19T00:11:22;2.30;;;1.40;;
38037;SDS011;23843;51.320;12.340;2023-11-19T00:13:47;1.40;;;1.20;;
38037;SDS011;23843;51.320;12.340;2023-11-19T00:16:13;1.53;;;1.13;;
38037;SDS011;23843;51.320;12.340;2023-11-19T00:18:38;1.70;;;1.00;;
38037;SDS011;23843;51.320;12.340;2023-11-19T00:21:04;1.70;;;1.30;;
38037;SDS011;23843;51.320;12.340;2023-11-19T00:23:31;2.43;;;1.00;;
38037;SDS011;23843;51.320;12.340;2023-11-19T00:25:56;1.13;;;0.83;;
38037;SDS011;23843;51.320;12.340;2023-11-19T00:28:22;1.17;;;0.90;;
38037;SDS011;23843;51.320;12.340;2023-11-19T00:30:48;0.80;;;0.80;;
38037;SDS011;23843;51.320;12.340;2023-11-19T00:33:13;0.60;;;0.60;;
38037;SDS011;23843;51.320;12.340;2023-11-19T00:35:38;0.90;;;0.80;;
38037;SDS011;23843;51.320;12.340;2023-11-19T00:38:04;1.20;;;0.67;;
38037;SDS011;23843;51.320;12.340;2023-11-19T00:40:31;0.50;;;0.50;;
38037;SDS011;23843;51.320;12.340;2023-11-19T00:42:56;0.50;;;0.50;;
38037;SDS011;23843;51.320;12.340;2023-11-19T00:45:22;0.80;;;0.70;;
38037;SDS011;23843;51.320;12.340;2023-11-19T00:47:47;0.67;;;0.60;;
38037;SDS011;23843;51.320;12.340;2023-11-19T00:50:13;0.30;;;0.30;;
38037;SDS011;23843;51.320;12.340;2023-11-19T00:52:38;0.40;;;0.40;;
38037;SDS011;23843;51.320;12.340;2023-11-19T00:55:04;0.30;;;0.30;;
38037;SDS011;23843;51.320;12.340;2023-11-19T00:57:32;0.90;;;0.70;;
38037;SDS011;23843;51.320;12.340;2023-11-19T00:59:57;0.60;;;0.60;;
38037;SDS011;23843;51.320;12.340;2023-11-19T01:02:23;0.50;;;0.40;;
38037;SDS011;23843;51.320;12.340;2023-11-19T01:04:48;1.17;;;0.60;;
38037;SDS011;23843;51.320;12.340;2023-11-19T01:07:14;0.30;;;0.30;;
38037;SDS011;23843;51.320;12.340;2023-11-19T01:09:41;0.30;;;0.30;;
38037;SDS011;23843;51.320;12.340;2023-11-19T01:12:07;0.53;;;0.50;;
38037;SDS011;23843;51.320;12.340;2023-11-19T01:14:33;0.37;;;0.30;;
38037;SDS011;23843;51.320;12.340;2023-11-19T01:16:59;0.30;;;0.30;;
38037;SDS011;23843;51.320;12.340;2023-11-19T01:19:25;0.33;;;0.33;;
38037;SDS011;23843;51.320;12.340;2023-11-19T01:21:51;0.40;;;0.40;;
38037;SDS011;23843;51.320;12.340;2023-11-19T01:24:16;0.50;;;0.50;;
38037;SDS011;23843;51.320;12.340;2023-11-19T01:26:43;0.67;;;0.50;;
38037;SDS011;23843;51.320;12.340;2023-11-19T01:29:08;0.60;;;0.60;;
38037;SDS011;23843;51.320;12.340;2023-11-19T01:31:35;0.33;;;0.33;;
38037;SDS011;23843;51.320;12.340;2023-11-19T01:34:00;0.17;;;0.17;;
38037;SDS011;23843;51.320;12.340;2023-11-19T01:36:26;0.30;;;0.30;;
38037;SDS011;23843;51.320;12.340;2023-11-19T01:38:51;0.30;;;0.30;;
38037;SDS011;23843;51.320;12.340;2023-11-19T01:41:17;0.37;;;0.30;;
38037;SDS011;23843;51.320;12.340;2023-11-19T01:43:42;0.10;;;0.10;;
38037;SDS011;23843;51.320;12.340;2023-11-19T01:46:08;0.63;;;0.50;;
38037;SDS011;23843;51.320;12.340;2023-11-19T01:48:35;0.40;;;0.40;;
38037;SDS011;23843;51.320;12.340;2023-11-19T01:51:04;0.37;;;0.37;;
38037;SDS011;23843;51.320;12.340;2023-11-19T01:53:30;0.50;;;0.50;;
38037;SDS011;23843;51.320;12.340;2023-11-19T01:55:57;0.30;;;0.30;;
38037;SDS011;23843;51.320;12.340;2023-11-19T01:58:23;0.20;;;0.20;;
38037;SDS011;23843;51.320;12.340;2023-11-19T02:00:49;0.20;;;0.20;;
38037;SDS011;23843;51.320;12.340;2023-11-19T02:03:15;0.20;;;0.20;;
38037;SDS011;23843;51.320;12.340;2023-11-19T02:05:42;0.20;;;0.20;;
38037;SDS011;23843;51.320;12.340;2023-11-19T02:08:08;0.37;;;0.37;;
38037;SDS011;23843;51.320;12.340;2023-11-19T02:10:34;0.20;;;0.20;;
38037;SDS011;23843;51.320;12.340;2023-11-19T02:12:59;0.50;;;0.40;;
38037;SDS011;23843;51.320;12.340;2023-11-19T02:15:25;0.33;;;0.33;;
38037;SDS011;23843;51.320;12.340;2023-11-19T02:17:51;0.60;;;0.57;;
38037;SDS011;23843;51.320;12.340;2023-11-19T02:20:16;0.33;;;0.33;;
38037;SDS011;23843;51.320;12.340;2023-11-19T02:22:44;0.40;;;0.40;;
38037;SDS011;23843;51.320;12.340;2023-11-19T02:25:12;0.80;;;0.70;;
38037;SDS011;23843;51.320;12.340;2023-11-19T02:27:46;0.30;;;0.30;;
38037;SDS011;23843;51.320;12.340;2023-11-19T02:30:16;0.40;;;0.40;;
38037;SDS011;23843;51.320;12.340;2023-11-19T02:32:41;0.20;;;0.20;;
38037;SDS011;23843;51.320;12.340;2023-11-19T02:35:07;0.20;;;0.20;;
38037;SDS011;23843;51.320;12.340;2023-11-19T02:37:33;0.50;;;0.40;;
38037;SDS011;23843;51.320;12.340;2023-11-19T02:39:59;0.70;;;0.70;;
38037;SDS011;23843;51.320;12.340;2023-11-19T02:42:24;0.37;;;0.37;;
38037;SDS011;23843;51.320;12.340;2023-11-19T02:44:51;0.60;;;0.40;;
38037;SDS011;23843;51.320;12.340;2023-11-19T02:47:16;0.50;;;0.50;;
38037;SDS011;23843;51.320;12.340;2023-11-19T02:49:42;0.47;;;0.47;;
38037;SDS011;23843;51.320;12.340;2023-11-19T02:52:07;0.30;;;0.30;;
38037;SDS011;23843;51.320;12.340;2023-11-19T02:54:33;0.57;;;0.50;;
38037;SDS011;23843;51.320;12.340;2023-11-19T02:56:58;0.40;;;0.40;;
38037;SDS011;23843;51.320;12.340;2023-11-19T02:59:24;0.80;;;0.80;;
38037;SDS011;23843;51.320;12.340;2023-11-19T03:01:50;0.37;;;0.37;;
38037;SDS011;23843;51.320;12.340;2023-11-19T03:04:16;0.30;;;0.30;;
38037;SDS011;23843;51.320;12.340;2023-11-19T03:06:41;0.40;;;0.40;;
38037;SDS011;23843;51.320;12.340;2023-11-19T03:09:07;0.40;;;0.40;;
38037;SDS011;23843;51.320;12.340;2023-11-19T03:11:32;0.30;;;0.30;;
38037;SDS011;23843;51.320;12.340;2023-11-19T03:13:58;0.57;;;0.50;;
38037;SDS011;23843;51.320;12.340;2023-11-19T03:16:23;0.33;;;0.33;;
38037;SDS011;23843;51.320;12.340;2023-11-19T03:18:50;0.70;;;0.60;;
38037;SDS011;23843;51.320;12.340;2023-11-19T03:21:15;0.87;;;0.50;;
38037;SDS011;23843;51.320;12.340;2023-11-19T03:23:41;0.30;;;0.30;;
38037;SDS011;23843;51.320;12.340;2023-11-19T03:26:07;0.30;;;0.30;;
38037;SDS011;23843;51.320;12.340;2023-11-19T03:28:32;0.30;;;0.30;;
38037;SDS011;23843;51.320;12.340;2023-11-19T03:30:58;0.37;;;0.20;;
38037;SDS011;23843;51.320;12.340;2023-11-19T03:33:23;0.20;;;0.20;;
38037;SDS011;23843;51.320;12.340;2023-11-19T03:35:50;0.53;;;0.30;;
38037;SDS011;23843;51.320;12.340;2023-11-19T03:38:15;0.40;;;0.40;;
38037;SDS011;23843;51.320;12.340;2023-11-19T03:40:41;0.30;;;0.30;;
38037;SDS011;23843;51.320;12.340;2023-11-19T03:43:06;0.70;;;0.70;;
38037;SDS011;23843;51.320;12.340;2023-11-19T03:45:32;0.20;;;0.20;;
38037;SDS011;23843;51.320;12.340;2023-11-19T03:47:57;0.30;;;0.30;;
38037;SDS011;23843;51.320;12.340;2023-11-19T03:50:23;0.37;;;0.37;;
38037;SDS011;23843;51.320;12.340;2023-11-19T03:52:49;0.33;;;0.30;;
38037;SDS011;23843;51.320;12.340;2023-11-19T03:55:15;0.40;;;0.40;;
38037;SDS011;23843;51.320;12.340;2023-11-19T03:57:40;0.17;;;0.17;;
38037;SDS011;23843;51.320;12.340;2023-11-19T04:00:06;0.10;;;0.10;;
38037;SDS011;23843;51.320;12.340;2023-11-19T04:02:32;0.17;;;0.17;;
38037;SDS011;23843;51.320;12.340;2023-11-19T04:04:58;0.10;;;0.10;;
38037;SDS011;23843;51.320;12.340;2023-11-19T04:07:23;0.20;;;0.20;;
38037;SDS011;23843;51.320;12.340;2023-11-19T04:09:50;0.20;;;0.20;;
38037;SDS011;23843;51.320;12.340;2023-11-19T04:12:15;0.10;;;0.10;;
38037;SDS011;23843;51.320;12.340;2023-11-19T04:14:41;0.30;;;0.30;;
38037;SDS011;23843;51.320;12.340;2023-11-19T04:17:07;0.40;;;0.30;;
38037;SDS011;23843;51.320;12.340;2023-11-19T04:19:32;0.20;;;0.20;;
38037;SDS011;23843;51.320;12.340;2023-11-19T04:21:57;0.33;;;0.20;;
38037;SDS011;23843;51.320;12.340;2023-11-19T04:24:23;0.20;;;0.20;;
38037;SDS011;23843;51.320;12.340;2023-11-19T04:26:50;0.17;;;0.17;;
38037;SDS011;23843;51.320;12.340;2023-11-19T04:29:16;0.37;;;0.30;;
38037;SDS011;23843;51.320;12.340;2023-11-19T04:31:42;0.20;;;0.20;;
38037;SDS011;23843;51.320;12.340;2023-11-19T04:34:07;0.20;;;0.20;;
38037;SDS011;23843;51.320;12.340;2023-11-19T04:36:33;0.13;;;0.10;;
38037;SDS011;23843;51.320;12.340;2023-11-19T04:38:59;0.23;;;0.20;;
38037;SDS011;23843;51.320;12.340;2023-11-19T04:41:25;0.10;;;0.10;;
38037;SDS011;23843;51.320;12.340;2023-11-19T04:43:52;0.43;;;0.20;;
38037;SDS011;23843;51.320;12.340;2023-11-19T04:46:17;0.40;;;0.30;;
38037;SDS011;23843;51.320;12.340;2023-11-19T04:48:42;0.40;;;0.30;;
38037;SDS011;23843;51.320;12.340;2023-11-19T04:51:08;0.10;;;0.10;;
38037;SDS011;23843;51.320;12.340;2023-11-19T04:53:33;0.70;;;0.70;;
38037;SDS011;23843;51.320;12.340;2023-11-19T04:55:59;0.20;;;0.20;;
38037;SDS011;23843;51.320;12.340;2023-11-19T04:58:24;0.10;;;0.10;;
38037;SDS011;23843;51.320;12.340;2023-11-19T05:00:51;0.23;;;0.20;;
38037;SDS011;23843;51.320;12.340;2023-11-19T05:03:17;0.13;;;0.10;;
38037;SDS011;23843;51.320;12.340;2023-11-19T05:05:42;0.10;;;0.10;;
38037;SDS011;23843;51.320;12.340;2023-11-19T05:08:07;0.10;;;0.10;;
38037;SDS011;23843;51.320;12.340;2023-11-19T05:10:33;0.13;;;0.13;;
38037;SDS011;23843;51.320;12.340;2023-11-19T05:12:58;0.10;;;0.10;;
38037;SDS011;23843;51.320;12.340;2023-11-19T05:15:24;0.10;;;0.10;;
38037;SDS011;23843;51.320;12.340;2023-11-19T05:17:51;0.17;;;0.17;;
38037;SDS011;23843;51.320;12.340;2023-11-19T05:20:16;0.47;;;0.10;;
38037;SDS011;23843;51.320;12.340;2023-11-19T05:22:42;0.20;;;0.20;;
38037;SDS011;23843;51.320;12.340;2023-11-19T05:25:08;0.10;;;0.10;;
38037;SDS011;23843;51.320;12.340;2023-11-19T05:27:34;0.10;;;0.10;;
38037;SDS011;23843;51.320;12.340;2023-11-19T05:29:59;0.17;;;0.17;;
38037;SDS011;23843;51.320;12.340;2023-11-19T05:32:24;0.20;;;0.20;;
38037;SDS011;23843;51.320;12.340;2023-11-19T05:34:51;0.70;;;0.70;;
38037;SDS011;23843;51.320;12.340;2023-11-19T05:37:17;0.20;;;0.20;;
38037;SDS011;23843;51.320;12.340;2023-11-19T05:39:42;0.20;;;0.20;;
38037;SDS011;23843;51.320;12.340;2023-11-19T05:42:09;0.13;;;0.10;;
38037;SDS011;23843;51.320;12.340;2023-11-19T05:44:35;2.53;;;0.13;;
38037;SDS011;23843;51.320;12.340;2023-11-19T05:47:00;0.10;;;0.10;;
38037;SDS011;23843;51.320;12.340;2023-11-19T05:49:26;0.10;;;0.10;;
38037;SDS011;23843;51.320;12.340;2023-11-19T05:51:52;0.10;;;0.10;;
38037;SDS011;23843;51.320;12.340;2023-11-19T05:54:18;0.10;;;0.10;;
38037;SDS011;23843;51.320;12.340;2023-11-19T05:56:47;0.10;;;0.10;;
38037;SDS011;23843;51.320;12.340;2023-11-19T05:59:12;0.00;;;0.00;;
38037;SDS011;23843;51.320;12.340;2023-11-19T06:01:38;0.03;;;0.00;;
38037;SDS011;23843;51.320;12.340;2023-11-19T06:04:04;0.00;;;0.00;;
38037;SDS011;23843;51.320;12.340;2023-11-19T06:06:29;0.00;;;0.00;;
38037;SDS011;23843;51.320;12.340;2023-11-19T06:08:56;0.07;;;0.00;;
38037;SDS011;23843;51.320;12.340;2023-11-19T06:11:21;0.03;;;0.03;;
38037;SDS011;23843;51.320;12.340;2023-11-19T06:13:47;0.10;;;0.03;;
38037;SDS011;23843;51.320;12.340;2023-11-19T06:16:12;0.60;;;0.60;;
38037;SDS011;23843;51.320;12.340;2023-11-19T06:18:38;0.00;;;0.00;;
38037;SDS011;23843;51.320;12.340;2023-11-19T06:21:03;0.70;;;0.70;;
38037;SDS011;23843;51.320;12.340;2023-11-19T06:23:29;0.00;;;0.00;;
38037;SDS011;23843;51.320;12.340;2023-11-19T06:25:56;0.10;;;0.10;;
38037;SDS011;23843;51.320;12.340;2023-11-19T06:28:21;0.00;;;0.00;;
38037;SDS011;23843;51.320;12.340;2023-11-19T06:30:47;0.43;;;0.43;;
38037;SDS011;23843;51.320;12.340;2023-11-19T06:33:12;0.10;;;0.10;;
38037;SDS011;23843;51.320;12.340;2023-11-19T06:35:38;0.00;;;0.00;;
38037;SDS011;23843;51.320;12.340;2023-11-19T06:38:04;0.10;;;0.10;;
38037;SDS011;23843;51.320;12.340;2023-11-19T06:40:29;0.30;;;0.00;;
38037;SDS011;23843;51.320;12.340;2023-11-19T06:42:56;0.00;;;0.00;;
38037;SDS011;23843;51.320;12.340;2023-11-19T06:45:22;0.00;;;0.00;;
38037;SDS011;23843;51.320;12.340;2023-11-19T06:47:47;0.00;;;0.00;;
38037;SDS011;23843;51.320;12.340;2023-11-19T06:50:13;0.00;;;0.00;;
38037;SDS011;23843;51.320;12.340;2023-11-19T06:52:38;0.03;;;0.00;;
38037;SDS011;23843;51.320;12.340;2023-11-19T06:55:04;0.00;;;0.00;;
38037;SDS011;23843;51.320;12.340;2023-11-19T06:57:30;0.00;;;0.00;;
38037;SDS011;23843;51.320;12.340;2023-11-19T06:59:57;0.10;;;0.10;;
38037;SDS011;23843;51.320;12.340;2023-11-19T07:02:22;0.03;;;0.03;;
38037;SDS011;23843;51.320;12.340;2023-11-19T07:04:47;0.10;;;0.10;;
38037;SDS011;23843;51.320;12.340;2023-11-19T07:07:13;0.10;;;0.10;;
38037;SDS011;23843;51.320;12.340;2023-11-19T07:09:38;0.10;;;0.10;;
38037;SDS011;23843;51.320;12.340;2023-11-19T07:12:04;0.00;;;0.00;;
38037;SDS011;23843;51.320;12.340;2023-11-19T07:14:30;0.20;;;0.10;;
38037;SDS011;23843;51.320;12.340;2023-11-19T07:16:57;0.10;;;0.10;;
38037;SDS011;23843;51.320;12.340;2023-11-19T07:19:23;0.00;;;0.00;;
38037;SDS011;23843;51.320;12.340;2023-11-19T07:21:48;0.00;;;0.00;;
38037;SDS011;23843;51.320;12.340;2023-11-19T07:24:13;0.00;;;0.00;;
38037;SDS011;23843;51.320;12.340;2023-11-19T07:26:42;0.00;;;0.00;;
38037;SDS011;23843;51.320;12.340;2023-11-19T07:29:08;0.10;;;0.10;;
38037;SDS011;23843;51.320;12.340;2023-11-19T07:31:34;0.00;;;0.00;;
38037;SDS011;23843;51.320;12.340;2023-11-19T07:34:01;0.50;;;0.50;;
38037;SDS011;23843;51.320;12.340;2023-11-19T07:36:26;0.00;;;0.00;;
38037;SDS011;23843;51.320;12.340;2023-11-19T07:38:52;0.00;;;0.00;;
38037;SDS011;23843;51.320;12.340;2023-11-19T07:41:17;0.00;;;0.00;;
38037;SDS011;23843;51.320;12.340;2023-11-19T07:43:43;0.10;;;0.10;;
38037;SDS011;23843;51.320;12.340;2023-11-19T07:46:10;0.00;;;0.00;;
38037;SDS011;23843;51.320;12.340;2023-11-19T07:48:36;0.00;;;0.00;;
38037;SDS011;23843;51.320;12.340;2023-11-19T07:51:03;0.00;;;0.00;;
38037;SDS011;23843;51.320;12.340;2023-11-19T07:53:28;0.00;;;0.00;;
38037;SDS011;23843;51.320;12.340;2023-11-19T07:55:54;0.00;;;0.00;;
38037;SDS011;23843;51.320;12.340;2023-11-19T07:58:19;0.00;;;0.00;;
38037;SDS011;23843;51.320;12.340;2023-11-19T08:00:45;0.00;;;0.00;;
38037;SDS011;23843;51.320;12.340;2023-11-19T08:03:10;0.00;;;0.00;;
38037;SDS011;23843;51.320;12.340;2023-11-19T08:05:36;0.00;;;0.00;;
38037;SDS011;23843;51.320;12.340;2023-11-19T08:08:03;0.00;;;0.00;;
38037;SDS011;23843;51.320;12.340;2023-11-19T08:10:28;0.00;;;0.00;;
38037;SDS011;23843;51.320;12.340;2023-11-19T08:12:54;0.00;;;0.00;;
38037;SDS011;23843;51.320;12.340;2023-11-19T08:15:19;0.00;;;0.00;;
38037;SDS011;23843;51.320;12.340;2023-11-19T08:17:45;0.00;;;0.00;;
38037;SDS011;23843;51.320;12.340;2023-11-19T08:20:10;0.00;;;0.00;;
38037;SDS011;23843;51.320;12.340;2023-11-19T08:22:36;0.10;;;0.10;;
38037;SDS011;23843;51.320;12.340;2023-11-19T08:25:03;0.07;;;0.07;;
38037;SDS011;23843;51.320;12.340;2023-11-19T08:27:29;0.10;;;0.10;;
38037;SDS011;23843;51.320;12.340;2023-11-19T08:29:54;0.10;;;0.03;;
38037;SDS011;23843;51.320;12.340;2023-11-19T08:32:20;0.10;;;0.10;;
38037;SDS011;23843;51.320;12.340;2023-11-19T08:34:45;0.00;;;0.00;;
38037;SDS011;23843;51.320;12.340;2023-11-19T08:37:11;0.10;;;0.10;;
38037;SDS011;23843;51.320;12.340;2023-11-19T08:39:36;0.60;;;0.60;;
38037;SDS011;23843;51.320;12.340;2023-11-19T08:42:03;0.50;;;0.50;;
38037;SDS011;23843;51.320;12.340;2023-11-19T08:44:29;0.60;;;0.60;;
38037;SDS011;23843;51.320;12.340;2023-11-19T08:46:54;0.23;;;0.23;;
38037;SDS011;23843;51.320;12.340;2023-11-19T08:49:19;0.30;;;0.30;;
38037;SDS011;23843;51.320;12.340;2023-11-19T08:51:45;1.37;;;0.90;;
38037;SDS011;23843;51.320;12.340;2023-11-19T08:54:10;0.37;;;0.30;;
38037;SDS011;23843;51.320;12.340;2023-11-19T08:56:36;0.30;;;0.30;;
38037;SDS011;23843;51.320;12.340;2023-11-19T08:59:03;0.20;;;0.20;;
38037;SDS011;23843;51.320;12.340;2023-11-19T09:01:28;0.30;;;0.30;;
38037;SDS011;23843;51.320;12.340;2023-11-19T09:03:53;0.27;;;0.27;;
38037;SDS011;23843;51.320;12.340;2023-11-19T09:06:19;0.50;;;0.33;;
38037;SDS011;23843;51.320;12.340;2023-11-19T09:08:44;0.80;;;0.20;;
38037;SDS011;23843;51.320;12.340;2023-11-19T09:11:10;0.97;;;0.50;;
38037;SDS011;23843;51.320;12.340;2023-11-19T09:13:35;1.90;;;1.00;;
38037;SDS011;23843;51.320;12.340;2023-11-19T09:16:02;1.60;;;0.80;;
38037;SDS011;23843;51.320;12.340;2023-11-19T09:18:28;0.90;;;0.70;;
38037;SDS011;23843;51.320;12.340;2023-11-19T09:20:54;0.50;;;0.40;;
38037;SDS011;23843;51.320;12.340;2023-11-19T09:23:19;0.97;;;0.40;;
38037;SDS011;23843;51.320;12.340;2023-11-19T09:25:44;0.30;;;0.20;;
38037;SDS011;23843;51.320;12.340;2023-11-19T09:28:10;0.30;;;0.30;;
38037;SDS011;23843;51.320;12.340;2023-11-19T09:30:35;0.20;;;0.20;;
38037;SDS011;23843;51.320;12.340;2023-11-19T09:33:02;0.50;;;0.40;;
38037;SDS011;23843;51.320;12.340;2023-11-19T09:35:28;0.50;;;0.30;;
38037;SDS011;23843;51.320;12.340;2023-11-19T09:37:53;0.20;;;0.20;;
38037;SDS011;23843;51.320;12.340;2023-11-19T09:40:19;0.13;;;0.13;;
38037;SDS011;23843;51.320;12.340;2023-11-19T09:42:44;0.10;;;0.10;;
38037;SDS011;23843;51.320;12.340;2023-11-19T09:45:12;0.17;;;0.10;;
38037;SDS011;23843;51.320;12.340;2023-11-19T09:47:39;0.10;;;0.10;;
38037;SDS011;23843;51.320;12.340;2023-11-19T09:50:06;0.37;;;0.20;;
38037;SDS011;23843;51.320;12.340;2023-11-19T09:52:32;1.40;;;0.60;;
38037;SDS011;23843;51.320;12.340;2023-11-19T09:54:58;0.77;;;0.40;;
38037;SDS011;23843;51.320;12.340;2023-11-19T09:57:23;0.37;;;0.37;;
38037;SDS011;23843;51.320;12.340;2023-11-19T09:59:49;0.10;;;0.10;;
38037;SDS011;23843;51.320;12.340;2023-11-19T10:02:15;0.33;;;0.20;;
38037;SDS011;23843;51.320;12.340;2023-11-19T10:04:42;0.37;;;0.20;;
38037;SDS011;23843;51.320;12.340;2023-11-19T10:07:11;0.10;;;0.10;;
38037;SDS011;23843;51.320;12.340;2023-11-19T10:09:37;0.10;;;0.10;;
38037;SDS011;23843;51.320;12.340;2023-11-19T10:12:02;0.30;;;0.30;;
38037;SDS011;23843;51.320;12.340;2023-11-19T10:14:28;0.10;;;0.10;;
38037;SDS011;23843;51.320;12.340;2023-11-19T10:16:56;0.10;;;0.10;;
38037;SDS011;23843;51.320;12.340;2023-11-19T10:19:21;0.20;;;0.10;;
38037;SDS011;23843;51.320;12.340;2023-11-19T10:21:47;0.10;;;0.10;;
38037;SDS011;23843;51.320;12.340;2023-11-19T10:24:13;0.00;;;0.00;;
38037;SDS011;23843;51.320;12.340;2023-11-19T10:26:39;0.20;;;0.20;;
38037;SDS011;23843;51.320;12.340;2023-11-19T10:29:05;0.10;;;0.10;;
38037;SDS011;23843;51.320;12.340;2023-11-19T10:31:31;0.20;;;0.20;;
38037;SDS011;23843;51.320;12.340;2023-11-19T10:33:56;0.13;;;0.13;;
38037;SDS011;23843;51.320;12.340;2023-11-19T10:36:22;0.10;;;0.10;;
38037;SDS011;23843;51.320;12.340;2023-11-19T10:38:54;0.20;;;0.20;;
38037;SDS011;23843;51.320;12.340;2023-11-19T10:41:27;0.30;;;0.30;;
38037;SDS011;23843;51.320;12.340;2023-11-19T10:43:53;0.27;;;0.23;;
38037;SDS011;23843;51.320;12.340;2023-11-19T10:46:19;1.10;;;0.50;;
38037;SDS011;23843;51.320;12.340;2023-11-19T10:48:44;0.30;;;0.30;;
38037;SDS011;23843;51.320;12.340;2023-11-19T10:51:10;0.47;;;0.43;;
38037;SDS011;23843;51.320;12.340;2023-11-19T10:53:37;0.70;;;0.57;;
38037;SDS011;23843;51.320;12.340;2023-11-19T10:56:04;2.23;;;0.73;;
38037;SDS011;23843;51.320;12.340;2023-11-19T10:58:33;0.40;;;0.40;;
38037;SDS011;23843;51.320;12.340;2023-11-19T11:01:01;1.13;;;0.50;;
38037;SDS011;23843;51.320;12.340;2023-11-19T11:03:28;1.33;;;0.83;;
38037;SDS011;23843;51.320;12.340;2023-11-19T11:06:00;4.43;;;1.07;;
38037;SDS011;23843;51.320;12.340;2023-11-19T11:08:29;1.77;;;0.80;;
38037;SDS011;23843;51.320;12.340;2023-11-19T11:10:55;1.60;;;0.87;;
38037;SDS011;23843;51.320;12.340;2023-11-19T11:13:22;2.77;;;1.17;;
38037;SDS011;23843;51.320;12.340;2023-11-19T11:15:50;3.20;;;1.20;;
38037;SDS011;23843;51.320;12.340;2023-11-19T11:18:16;3.60;;;1.43;;
38037;SDS011;23843;51.320;12.340;2023-11-19T11:20:42;7.57;;;1.80;;
38037;SDS011;23843;51.320;12.340;2023-11-19T11:23:25;6.57;;;1.70;;
38037;SDS011;23843;51.320;12.340;2023-11-19T11:29:00;8.30;;;1.87;;
38037;SDS011;23843;51.320;12.340;2023-11-19T11:31:31;6.57;;;2.57;;
38037;SDS011;23843;51.320;12.340;2023-11-19T11:34:19;5.83;;;1.90;;
38037;SDS011;23843;51.320;12.340;2023-11-19T11:37:01;4.87;;;1.40;;
38037;SDS011;23843;51.320;12.340;2023-11-19T11:39:35;2.30;;;1.20;;
38037;SDS011;23843;51.320;12.340;2023-11-19T11:45:00;5.93;;;1.80;;
38037;SDS011;23843;51.320;12.340;2023-11-19T11:47:27;5.40;;;1.90;;
38037;SDS011;23843;51.320;12.340;2023-11-19T11:50:47;4.90;;;1.80;;
38037;SDS011;23843;51.320;12.340;2023-11-19T11:53:15;4.67;;;1.90;;
38037;SDS011;23843;51.320;12.340;2023-11-19T11:55:52;6.67;;;2.00;;
38037;SDS011;23843;51.320;12.340;2023-11-19T11:58:19;4.70;;;1.57;;
38037;SDS011;23843;51.320;12.340;2023-11-19T12:00:45;6.37;;;2.30;;
38037;SDS011;23843;51.320;12.340;2023-11-19T12:03:13;5.10;;;1.60;;
38037;SDS011;23843;51.320;12.340;2023-11-19T12:05:40;4.40;;;1.87;;
38037;SDS011;23843;51.320;12.340;2023-11-19T12:08:07;5.77;;;1.70;;
38037;SDS011;23843;51.320;12.340;2023-11-19T12:10:36;5.20;;;1.50;;
38037;SDS011;23843;51.320;12.340;2023-11-19T12:13:04;3.87;;;1.63;;
38037;SDS011;23843;51.320;12.340;2023-11-19T12:15:31;4.53;;;1.67;;
38037;SDS011;23843;51.320;12.340;2023-11-19T12:17:56;8.50;;;2.50;;
38037;SDS011;23843;51.320;12.340;2023-11-19T12:20:24;3.83;;;1.70;;
38037;SDS011;23843;51.320;12.340;2023-11-19T12:22:51;3.83;;;1.43;;
38037;SDS011;23843;51.320;12.340;2023-11-19T12:25:17;7.70;;;2.00;;
38037;SDS011;23843;51.320;12.340;2023-11-19T12:27:43;4.83;;;1.43;;
38037;SDS011;23843;51.320;12.340;2023-11-19T12:30:10;5.03;;;1.70;;
38037;SDS011;23843;51.320;12.340;2023-11-19T12:32:39;3.00;;;1.37;;
38037;SDS011;23843;51.320;12.340;2023-11-19T12:35:05;4.07;;;1.40;;
38037;SDS011;23843;51.320;12.340;2023-11-19T12:37:32;5.60;;;1.90;;
38037;SDS011;23843;51.320;12.340;2023-11-19T12:39:57;6.40;;;2.00;;
38037;SDS011;23843;51.320;12.340;2023-11-19T12:42:34;6.10;;;1.73;;
38037;SDS011;23843;51.320;12.340;2023-11-19T12:45:00;6.97;;;2.27;;
38037;SDS011;23843;51.320;12.340;2023-11-19T12:47:26;2.60;;;1.13;;
38037;SDS011;23843;51.320;12.340;2023-11-19T12:49:57;5.67;;;1.87;;
38037;SDS011;23843;51.320;12.340;2023-11-19T12:52:23;4.50;;;1.40;;
38037;SDS011;23843;51.320;12.340;2023-11-19T12:54:49;5.20;;;1.77;;
38037;SDS011;23843;51.320;12.340;2023-11-19T12:57:15;2.47;;;1.30;;
38037;SDS011;23843;51.320;12.340;2023-11-19T12:59:41;4.97;;;1.90;;
38037;SDS011;23843;51.320;12.340;2023-11-19T13:02:06;3.20;;;1.43;;
38037;SDS011;23843;51.320;12.340;2023-11-19T13:04:32;3.40;;;1.40;;
38037;SDS011;23843;51.320;12.340;2023-11-19T13:06:58;4.60;;;1.67;;
38037;SDS011;23843;51.320;12.340;2023-11-19T13:09:24;5.43;;;2.00;;
38037;SDS011;23843;51.320;12.340;2023-11-19T13:11:51;5.97;;;2.00;;
38037;SDS011;23843;51.320;12.340;2023-11-19T13:14:17;4.30;;;1.73;;
38037;SDS011;23843;51.320;12.340;2023-11-19T13:16:43;4.90;;;1.83;;
38037;SDS011;23843;51.320;12.340;2023-11-19T13:19:08;4.57;;;1.63;;
38037;SDS011;23843;51.320;12.340;2023-11-19T13:21:34;3.83;;;0.93;;
38037;SDS011;23843;51.320;12.340;2023-11-19T13:24:00;3.33;;;1.30;;
38037;SDS011;23843;51.320;12.340;2023-11-19T13:26:26;6.43;;;2.10;;
38037;SDS011;23843;51.320;12.340;2023-11-19T13:28:52;5.10;;;1.47;;
38037;SDS011;23843;51.320;12.340;2023-11-19T13:31:18;4.57;;;1.20;;
38037;SDS011;23843;51.320;12.340;2023-11-19T13:33:43;4.23;;;1.67;;
38037;SDS011;23843;51.320;12.340;2023-11-19T13:36:09;3.07;;;1.27;;
38037;SDS011;23843;51.320;12.340;2023-11-19T13:38:34;4.00;;;1.50;;
38037;SDS011;23843;51.320;12.340;2023-11-19T13:41:01;2.70;;;1.20;;
38037;SDS011;23843;51.320;12.340;2023-11-19T13:43:26;5.77;;;1.90;;
38037;SDS011;23843;51.320;12.340;2023-11-19T13:45:53;5.53;;;2.30;;
38037;SDS011;23843;51.320;12.340;2023-11-19T13:48:19;2.43;;;1.30;;
38037;SDS011;23843;51.320;12.340;2023-11-19T13:50:44;3.60;;;1.40;;
38037;SDS011;23843;51.320;12.340;2023-11-19T13:53:10;3.80;;;1.47;;
38037;SDS011;23843;51.320;12.340;2023-11-19T13:55:35;2.37;;;1.03;;
38037;SDS011;23843;51.320;12.340;2023-11-19T13:58:00;2.90;;;1.20;;
38037;SDS011;23843;51.320;12.340;2023-11-19T14:00:26;1.37;;;0.90;;
38037;SDS011;23843;51.320;12.340;2023-11-19T14:02:53;1.73;;;1.00;;
38037;SDS011;23843;51.320;12.340;2023-11-19T14:05:18;2.60;;;1.00;;
38037;SDS011;23843;51.320;12.340;2023-11-19T14:07:44;1.80;;;1.03;;
38037;SDS011;23843;51.320;12.340;2023-11-19T14:10:10;3.27;;;0.83;;
38037;SDS011;23843;51.320;12.340;2023-11-19T14:12:35;1.77;;;0.83;;
38037;SDS011;23843;51.320;12.340;2023-11-19T14:15:02;3.67;;;1.30;;
38037;SDS011;23843;51.320;12.340;2023-11-19T14:17:27;6.07;;;2.10;;
38037;SDS011;23843;51.320;12.340;2023-11-19T14:19:54;3.87;;;1.53;;
38037;SDS011;23843;51.320;12.340;2023-11-19T14:22:20;3.03;;;1.40;;
38037;SDS011;23843;51.320;12.340;2023-11-19T14:24:45;2.77;;;1.27;;
38037;SDS011;23843;51.320;12.340;2023-11-19T14:27:11;3.43;;;1.47;;
38037;SDS011;23843;51.320;12.340;2023-11-19T14:29:36;3.80;;;1.80;;
38037;SDS011;23843;51.320;12.340;2023-11-19T14:32:02;3.20;;;1.30;;
38037;SDS011;23843;51.320;12.340;2023-11-19T14:34:28;2.17;;;1.00;;